Flight Track Log - Related Links

Times and Time Zones

All times are in EDT time to prevent confusion due to time zone crossing. See the ASQ5745 flight status page for this flight to view local times or setup timezone preferences in your user account.

Time Position Orientation Groundspeed Altitude Reporting Facility
EDT Latitude Longitude Course Direction KTS MPH feet Rate Location/Type
Sat 08:16:28 AM 38.9564 -77.5164 313° West 180 207 2,400  Level Washington Center
Sat 08:17:30 AM 39.0033 -77.5817 313° West 243 280 4,200 2,550 Climbing Washington Center
Sat 08:18:28 AM 39.0781 -77.5997 349° North 250 288 7,500 2,924 Climbing Washington Center
Sat 08:19:29 AM 39.1592 -77.6100 354° North 262 302 10,000 1,835 Climbing Washington Center
Sat 08:20:29 AM 39.2506 -77.6206 355° North 296 341 11,200 1,438 Climbing Washington Center
Sat 08:21:30 AM 39.3528 -77.6153 North 334 384 12,900 1,736 Climbing Washington Center
Sat 08:22:30 AM 39.4497 -77.5617 23° Northeast 354 407 14,700 1,475 Climbing Washington Center
Sat 08:24:29 AM 39.6444 -77.4578 22° Northeast 392 451 17,300 1,153 Climbing New York Center
Sat 08:25:27 AM 39.7678 -77.4533 North 397 457 18,100 958 Climbing New York Center
Sat 08:26:28 AM 39.8822 -77.4208 12° North 413 475 19,200 1,033 Climbing New York Center
Sat 08:27:29 AM 39.9919 -77.3608 23° Northeast 413 475 20,200 958 Climbing New York Center
Sat 08:28:27 AM 40.1036 -77.3008 22° Northeast 420 483 21,100 850 Climbing New York Center
Sat 08:29:29 AM 40.2028 -77.2447 23° Northeast 420 483 21,900 800 Climbing New York Center
Sat 08:30:27 AM 40.3144 -77.1817 23° Northeast 430 495 22,700 756 Climbing New York Center
Sat 08:31:28 AM 40.4303 -77.1217 22° Northeast 435 501 23,400 694 Climbing New York Center
Sat 08:32:28 AM 40.5464 -77.0583 23° Northeast 435 501 24,100 655 Climbing New York Center
Sat 08:33:27 AM 40.6644 -76.9928 23° Northeast 446 513 24,700 600 Climbing New York Center
Sat 08:34:28 AM 40.7825 -76.9267 23° Northeast 446 513 25,300 590 Climbing New York Center
Sat 08:35:29 AM 40.8986 -76.8603 23° Northeast 446 513 25,900 545 Climbing New York Center
Sat 08:36:29 AM 41.0186 -76.7939 23° Northeast 446 513 26,400 508 Climbing New York Center
Sat 08:37:27 AM 41.1472 -76.7228 23° Northeast 446 513 26,900 303 Climbing New York Center
Sat 08:38:28 AM 41.2672 -76.6531 24° Northeast 451 519 27,000 49 Climbing New York Center
Sat 08:39:30 AM 41.3853 -76.5861 23° Northeast 451 519 27,000  Level New York Center
Sat 08:40:27 AM 41.5031 -76.5214 22° Northeast 451 519 27,000  Level New York Center
Sat 08:41:27 AM 41.6186 -76.4536 24° Northeast 445 512 27,000 -335 Level New York Center
Sat 08:43:44 AM 41.8569 -76.3094 24° Northeast 427 491 25,900 -579 Descending Boston Center
Sat 08:44:44 AM 41.9258 -76.1825 54° Northeast 404 465 25,100 -800 Descending Boston Center
Sat 08:45:44 AM 41.9764 -76.0400 64° Northeast 404 465 24,300 -800 Descending Boston Center
Sat 08:46:44 AM 42.0289 -75.8922 64° Northeast 399 459 23,500 -900 Descending Boston Center
Sat 08:47:44 AM 42.0767 -75.7578 64° Northeast 394 453 22,500 -1,050 Descending Boston Center
Sat 08:48:44 AM 42.1242 -75.6258 64° Northeast 394 453 21,400 -1,050 Descending Boston Center
Sat 08:49:44 AM 42.1697 -75.4936 65° Northeast 394 453 20,400 -1,000 Descending Boston Center
Sat 08:50:44 AM 42.2169 -75.3586 65° Northeast 394 453 19,400 -1,000 Descending Boston Center
Sat 08:51:44 AM 42.2642 -75.2261 64° Northeast 394 453 18,400 -833 Descending Boston Center
Sat 08:53:08 AM 42.3133 -75.0850 65° Northeast 389 448 17,400 -1,192 Descending Boston Center
Sat 08:54:20 AM 42.3625 -74.9353 66° East 373 429 15,300 -1,969 Descending Boston Center
Sat 08:55:16 AM 42.4158 -74.7800 65° Northeast 355 409 13,200 -1,850 Descending Boston Center
Sat 08:56:20 AM 42.4600 -74.6578 64° Northeast 351 404 11,600 -1,065 Descending Boston Center
Sat 08:57:20 AM 42.4975 -74.5436 66° East 345 397 11,000 -700 Descending Boston Center
Sat 08:58:20 AM 42.5247 -74.4261 73° East 325 374 10,200 -1,050 Descending Boston Center
Sat 08:59:20 AM 42.5456 -74.3142 76° East 310 357 8,900 -1,550 Descending Boston Center
Sat 09:00:20 AM 42.5661 -74.1992 76° East 305 351 7,100 -1,650 Descending Boston Center
Sat 09:01:20 AM 42.5844 -74.0897 77° East 305 351 5,600 -1,450 Descending Boston Center
Sat 09:02:20 AM 42.6022 -74.0000 75° East 285 328 4,200 -800 Descending Boston Center
Sat 09:03:20 AM 42.6181 -73.9156 76° East 257 296 4,000 -700 Descending Boston Center
Sat 09:04:20 AM 42.6294 -73.8369 79° East 229 264 2,800 -850 Descending Boston Center
Sat 09:05:20 AM 42.6431 -73.7497 78° East 215 247 2,300 -857 Descending Boston Center
Sat 09:06:47 AM 42.7214 -73.8078 331° Northwest 134 154 700 -1,103 Descending Boston Center

Login

Don't have an account? Register now (free) for customized features, flight alerts, and more!